»·PEaware :: ASA180 KPDX-KGEG

ASA180 :: KPDX-KGEG

FLIGHT INFORMATION

Flight Status: Arrived
Operator:
Alaska Airlines
More flights by this operator :: More flights under this callsign
Pilot: Etienne B. (28927)
Aircraft: AIRBUS A320
(A320)
More flights by this aircraft type
Origin: KPDX Portland Intl
United States
Destination: KGEG Spokane Intl
United States
More flights between these airports :: More routes between these airports
Route: LAVAA6 YKM MWH ZOOMR1
File this flight plan on PilotEdge
Remarks: RMK / SIMBRIEF
Altitude:
(Current/Filed)
33,000ft
Speed:
(Current/Filed)
427kts
Departed: 11-May-20 03:43 PM
Arrived: 11-May-20 04:30 PM
Distance/Time
Traveled:
242nm/0:46
Distance/Time
To Go:
Arrived

Flight Plot

Page will automatically refresh every two minutes.

Flight plan parsing failed; only flown route is shown


Map Options




Map Legend


Flown Route
Filed Route
Departure Airport
Arrival Airport
Navaid (VOR, NDB)
Fix

Horizontal Profiles

Position Reports

Time Latitude Longitude Heading Altitude Ground
Speed
11-May-20 15:22 45.587817 -122.594861 10 38ft 0kts
11-May-20 15:23 45.587817 -122.594861 10 38ft 0kts
11-May-20 15:24 45.587817 -122.594861 10 38ft 0kts
11-May-20 15:25 45.587817 -122.594861 10 38ft 0kts
11-May-20 15:26 45.587817 -122.594861 10 38ft 0kts
11-May-20 15:27 45.587817 -122.594861 10 38ft 0kts
11-May-20 15:28 45.587817 -122.594861 10 38ft 0kts
11-May-20 15:29 45.587817 -122.594861 10 38ft 0kts
11-May-20 15:30 45.587817 -122.594861 10 38ft 0kts
11-May-20 15:31 45.587817 -122.594861 10 38ft 0kts
11-May-20 15:32 45.587817 -122.594861 10 38ft 0kts
11-May-20 15:33 45.587816 -122.594861 10 38ft 0kts
11-May-20 15:34 45.587454 -122.595015 35 38ft 2kts
11-May-20 15:35 45.587236 -122.595640 93 38ft 2kts
11-May-20 15:36 45.587323 -122.596014 119 38ft 0kts
11-May-20 15:37 45.587323 -122.596014 119 38ft 0kts
11-May-20 15:38 45.586880 -122.594917 120 38ft 12kts
11-May-20 15:39 45.584891 -122.591295 129 38ft 12kts
11-May-20 15:40 45.583073 -122.587253 118 38ft 12kts
11-May-20 15:41 45.581263 -122.583628 188 38ft 7kts
11-May-20 15:42 45.582520 -122.589000 297 38ft 88kts
11-May-20 15:43 45.602841 -122.639083 299 1421ft 200kts
11-May-20 15:44 45.634420 -122.709612 300 3936ft 253kts
11-May-20 15:45 45.680173 -122.790015 339 6897ft 287kts
11-May-20 15:46 45.749709 -122.749157 52 9696ft 300kts
11-May-20 15:47 45.758172 -122.645427 93 11526ft 328kts
11-May-20 15:48 45.756028 -122.514414 92 13740ft 348kts
11-May-20 15:49 45.754403 -122.383013 92 15895ft 358kts
11-May-20 15:50 45.752628 -122.246924 93 17860ft 368kts
11-May-20 15:51 45.750604 -122.104226 93 19659ft 378kts
11-May-20 15:52 45.748294 -121.954935 93 21307ft 388kts
11-May-20 15:53 45.777839 -121.802224 53 22804ft 417kts
11-May-20 15:54 45.862973 -121.660428 53 24279ft 429kts
11-May-20 15:55 45.941269 -121.528555 53 25519ft 439kts
11-May-20 15:56 46.020963 -121.393551 53 26676ft 448kts
11-May-20 15:57 46.101833 -121.255870 54 27755ft 456kts
11-May-20 15:58 46.183294 -121.116466 53 28547ft 468kts
11-May-20 15:59 46.267614 -120.971431 52 29232ft 480kts
11-May-20 16:00 46.352751 -120.824269 52 30114ft 485kts
11-May-20 16:01 46.437741 -120.676587 52 31254ft 482kts
11-May-20 16:02 46.522555 -120.528372 52 32284ft 481kts
11-May-20 16:03 46.606724 -120.381478 51 32809ft 480kts
11-May-20 16:04 46.691397 -120.234883 52 32812ft 480kts
11-May-20 16:06 46.775404 -120.088493 52 32814ft 480kts
11-May-20 16:07 46.860532 -119.939348 52 32814ft 480kts
11-May-20 16:08 46.944754 -119.791049 52 32087ft 468kts
11-May-20 16:09 47.026963 -119.645437 52 29941ft 461kts
11-May-20 16:10 47.107684 -119.501710 52 27841ft 452kts
11-May-20 16:11 47.185597 -119.362323 52 26015ft 434kts
11-May-20 16:12 47.234159 -119.210713 75 23489ft 391kts
11-May-20 16:13 47.265067 -119.067693 75 21661ft 354kts
11-May-20 16:14 47.294333 -118.931194 74 19872ft 346kts
11-May-20 16:15 47.322865 -118.797498 70 18106ft 339kts
11-May-20 16:16 47.350696 -118.666375 70 16367ft 333kts
11-May-20 16:17 47.377977 -118.537010 71 14646ft 326kts
11-May-20 16:18 47.404384 -118.410932 71 12982ft 319kts
11-May-20 16:19 47.430064 -118.286033 77 12032ft 322kts
11-May-20 16:20 47.436578 -118.162038 86 11198ft 278kts
11-May-20 16:21 47.440174 -118.052418 85 9390ft 259kts
11-May-20 16:22 47.443320 -117.948048 85 7541ft 250kts
11-May-20 16:23 47.446123 -117.844168 85 5224ft 253kts
11-May-20 16:24 47.470685 -117.760167 46 4367ft 217kts
11-May-20 16:25 47.511037 -117.699973 45 4023ft 194kts
11-May-20 16:26 47.543911 -117.650391 45 3768ft 141kts
11-May-20 16:26 47.566235 -117.616473 45 3651ft 139kts
11-May-20 16:28 47.597121 -117.569639 46 2794ft 131kts
11-May-20 16:28 47.616574 -117.540217 44 2375ft 55kts
11-May-20 16:29 47.621540 -117.532798 46 2362ft 24kts
11-May-20 16:30 47.624598 -117.530737 13 2357ft 5kts
11-May-20 16:31 47.625079 -117.532889 250 2358ft 4kts
11-May-20 16:32 47.625230 -117.534076 316 2360ft 0kts

Navigation Log

Ident Type
Flight plan parsing failed, navigation log unavailable